Station: Avalon  

  Atmospheric Gas Attenuation - ITU Rec 676-11   ----------------- dB/100km -----------------
Date Time Temp RH % AH g/m3 Dew Point Wind Direction Speed kph Gust kph Barometer mB Rainfall Since 9am 24GHz 47GHz 76GHz 122GHz 134GHz 241GHz
08/05 12:30 16.4 59 8.23 8.4 32 43 1023.2 0 18.7 24.9 37.5 98.3 91.2 313.7
08/05 12:20 16.7 57 8.1 8.1 32 35 1023.4 0 18.4 24.7 36.9 96.6 89.3 306.8
08/05 12:10 17.2 56 8.2 8.4 32 35 1023.7 0 18.6 24.7 37.1 97.0 90.0 309.4
08/05 12:00 17.4 58 8.6 9.1 32 43 1023.8 0 19.4 25.3 38.5 100.9 94.8 326.2
08/05 11:50 16.2 64 8.83 9.4 24 32 1023.8 0 19.9 26.0 40.0 104.8 99.2 341.6
08/05 11:40 16.4 65 9.07 9.8 32 37 1023.7 0 20.4 26.3 40.8 107.1 102.1 351.6
08/05 11:30 16.2 65 8.96 9.6 33 44 1023.6 0 20.2 26.2 40.5 106.2 100.9 347.5
08/05 11:20 16.3 64 8.88 9.5 28 35 1023.5 0 20.1 26.0 40.1 105.2 99.7 343.4
08/05 11:10 15.8 66 8.88 9.5 35 41 1023.5 0 20.1 26.1 40.4 105.8 100.4 345.5
08/05 11:00 15.9 70 9.48 10.4 30 37 1023.5 0 21.3 27.1 42.7 112.1 108.2 372.8
08/05 10:50 15 80 10.26 11.6 26 28 1023.5 0 23.1 28.7 46.5 122.1 120.1 414.4
08/05 10:40 14.1 82 9.95 11.1 28 33 1023.6 0 22.4 28.4 45.7 120.0 117.2 404.1
08/05 10:30 14.2 82 10.01 11.2 30 39 1023.4 0 22.6 28.5 45.9 120.5 117.9 406.5
08/05 10:20 14.5 77 9.58 10.5 33 39 1023.3 0 21.6 27.7 43.9 115.2 111.5 384.2
08/05 10:10 14.6 79 9.89 11 32 39 1023.2 0 22.3 28.2 45.1 118.5 115.6 398.5
08/05 10:00 14.3 78 9.58 10.5 28 39 1023 0 21.6 27.7 44.0 115.5 111.7 385.1
08/05 09:50 14.5 77 9.58 10.5 28 32 1023 0 21.6 27.7 43.9 115.2 111.4 384.1
08/05 09:40 14.5 77 9.58 10.5 32 35 1022.9 0 21.6 27.7 43.9 115.2 111.4 384.1
08/05 09:30 14.6 77 9.64 10.6 28 39 1022.8 0 21.8 27.7 44.1 115.7 112.1 386.4
08/05 09:20 14.5 77 9.58 10.5 32 35 1022.6 0 21.6 27.7 43.9 115.2 111.4 384.0
08/05 09:10 14.2 77 9.4 10.2 30 33 1022.6 0 21.3 27.4 43.3 113.6 109.4 376.9
08/05 09:00 13.9 80 9.59 10.5 30 37 1022.6 0 21.7 27.9 44.2 116.2 112.4 387.4
08/05 08:50 13.6 81 9.53 10.4 33 37 1022.5 1 21.6 27.8 44.1 115.9 112.0 386.0
08/05 08:40 13.4 83 9.65 10.6 28 39 1022.5 1 21.8 28.1 44.8 117.6 114.0 392.8
08/05 08:30 12.8 86 9.63 10.5 26 37 1022.5 1 21.8 28.3 45.0 118.2 114.6 394.9
08/05 08:20 12.9 86 9.69 10.6 24 30 1022.6 1 22.0 28.3 45.2 118.8 115.3 397.3
08/05 08:10 12.7 87 9.69 10.6 26 32 1022.4 1 22.0 28.4 45.3 119.1 115.6 398.3
08/05 08:00 12.6 87 9.63 10.5 26 32 1022.1 1 21.8 28.3 45.1 118.5 114.9 395.8
08/05 07:50 12.3 88 9.56 10.4 26 32 1022 1 21.7 28.3 45.0 118.2 114.3 393.8
08/05 07:40 12 89 9.49 10.2 24 30 1021.9 1 21.6 28.3 44.9 117.8 113.8 391.9
08/05 07:30 11.9 89 9.43 10.1 26 32 1021.7 1 21.5 28.2 44.6 117.2 113.0 389.4
08/05 07:20 12 88 9.38 10.1 28 32 1021.5 1 21.3 28.1 44.4 116.5 112.2 386.4
08/05 07:10 12 87 9.27 9.9 22 30 1021.5 1 21.1 27.9 43.9 115.3 110.6 381.0
08/05 07:00 12.1 87 9.33 10 22 32 1021.4 1 21.2 27.9 44.1 115.8 111.3 383.4
08/05 06:50 12.1 87 9.33 10 20 24 1021.3 1 21.2 27.9 44.1 115.8 111.3 383.4
08/05 06:40 12.1 87 9.33 10 26 33 1021.2 1 21.2 27.9 44.1 115.7 111.3 383.3
08/05 06:30 12.4 87 9.51 10.3 26 41 1021.2 1 21.6 28.1 44.7 117.3 113.4 390.6
08/05 06:20 12.5 86 9.46 10.2 28 32 1021.2 1 21.5 28.0 44.4 116.6 112.5 387.7
08/05 06:10 12.6 85 9.4 10.1 24 32 1021.1 1 21.4 27.9 44.1 115.8 111.5 384.2
08/05 06:00 12.6 85 9.4 10.1 28 41 1021.1 1 21.4 27.9 44.1 115.8 111.5 384.2
08/05 05:50 12.6 85 9.4 10.1 26 30 1020.9 1 21.4 27.9 44.1 115.8 111.5 384.2
08/05 05:40 12.7 85 9.46 10.2 26 32 1020.9 1 21.5 27.9 44.3 116.3 112.2 386.6
08/05 05:30 12.8 85 9.52 10.3 28 39 1020.8 1 21.6 28.0 44.5 116.8 112.9 389.0
08/05 05:20 12.8 84 9.41 10.2 32 39 1020.7 1 21.4 27.8 44.0 115.6 111.4 383.6
08/05 05:10 12.8 85 9.52 10.3 30 33 1020.5 1 21.6 28.0 44.5 116.8 112.9 388.9
08/05 05:00 12.9 84 9.47 10.3 26 33 1020.5 1 21.5 27.9 44.2 116.1 112.0 386.0
08/05 04:50 12.9 84 9.47 10.3 28 33 1020.4 1 21.5 27.9 44.2 116.0 112.0 385.9
08/05 04:40 12.8 85 9.52 10.3 26 30 1020.3 1 21.6 28.0 44.5 116.8 112.9 388.8
08/05 04:30 12.9 85 9.58 10.4 30 44 1020.1 1 21.7 28.1 44.6 117.3 113.5 391.2
08/05 04:20 12.7 87 9.69 10.6 24 33 1020 1 22.0 28.3 45.2 118.8 115.3 397.6
08/05 04:10 12.9 85 9.58 10.4 30 35 1019.8 1 21.7 28.0 44.6 117.2 113.5 391.1
08/05 04:00 12.7 86 9.57 10.4 26 39 1019.6 1 21.7 28.1 44.7 117.4 113.6 391.6
08/05 03:50 12.5 87 9.57 10.4 20 22 1019.6 1 21.7 28.2 44.8 117.7 113.9 392.6
08/05 03:40 12.6 88 9.74 10.7 30 35 1019.6 1 22.1 28.4 45.5 119.5 116.2 400.4
08/05 03:30 12.7 85 9.46 10.2 30 41 1019.6 1 21.5 27.9 44.2 116.1 112.1 386.2
08/05 03:20 12.8 85 9.52 10.3 28 33 1019.7 1 21.6 28.0 44.4 116.7 112.8 388.7
08/05 03:10 12.7 85 9.46 10.2 22 26 1019.6 1 21.5 27.9 44.2 116.1 112.1 386.2
08/05 03:00 12.6 86 9.52 10.3 28 39 1019.5 1 21.6 28.0 44.5 117.0 113.1 389.6
08/05 02:50 12.5 86 9.46 10.2 28 32 1019.5 1 21.5 28.0 44.3 116.4 112.4 387.2
08/05 02:40 12.2 87 9.39 10.1 28 32 1019.5 1 21.4 27.9 44.2 116.1 111.8 385.3
08/05 02:30 12.2 86 9.28 9.9 26 35 1019.5 1 21.1 27.7 43.7 114.8 110.3 379.9
08/05 02:20 12.3 85 9.23 9.9 30 35 1019.6 1 21.0 27.6 43.5 114.1 109.5 377.0
08/05 02:10 12.2 86 9.28 9.9 32 35 1019.6 1 21.1 27.8 43.7 114.9 110.3 379.9
08/05 02:00 12 87 9.27 9.9 30 43 1019.7 1 21.1 27.8 43.8 115.1 110.5 380.5
08/05 01:50 11.8 86 9.05 9.5 24 32 1019.8 1 20.6 27.5 43.0 112.9 107.7 370.8
08/05 01:40 11.9 86 9.11 9.6 28 33 1019.8 1 20.8 27.6 43.2 113.4 108.4 373.2
08/05 01:30 11.8 86 9.05 9.5 30 39 1019.9 1 20.6 27.5 43.0 112.9 107.7 370.8
08/05 01:20 12 85 9.06 9.6 35 39 1020.1 1 20.7 27.5 42.9 112.7 107.6 370.4
08/05 01:10 11.8 86 9.05 9.5 32 35 1020.1 1 20.6 27.5 43.0 112.9 107.7 370.8
08/05 01:00 11.7 86 9 9.4 30 41 1020.1 1 20.5 27.5 42.9 112.5 107.2 368.9
08/05 00:50 11.7 86 9 9.4 35 44 1020.3 1 20.5 27.5 42.9 112.5 107.2 368.9
08/05 00:40 11.6 86 8.94 9.3 28 32 1020.3 1 20.4 27.4 42.7 112.0 106.5 366.5
08/05 00:30 11.7 85 8.89 9.3 33 46 1020.3 1 20.3 27.3 42.4 111.3 105.7 363.6
08/05 00:20 11.7 86 9 9.4 37 43 1020.4 1 20.5 27.5 42.9 112.5 107.2 369.0
08/05 00:10 11.8 85 8.95 9.4 35 39 1020.5 1 20.4 27.4 42.6 111.8 106.4 366.1
08/05 00:00 11.5 85 8.78 9.1 35 50 1020.5 1 20.1 27.2 42.1 110.3 104.5 359.3
07/05 23:50 11.4 85 8.73 9 33 37 1020.6 1 20.0 27.1 41.9 109.9 103.9 357.4
07/05 23:40 11.3 85 8.67 8.9 33 39 1020.5 1 19.9 27.0 41.7 109.4 103.2 354.9
07/05 23:30 11.4 84 8.62 8.8 35 52 1020.5 1 19.7 26.9 41.4 108.7 102.4 352.1
07/05 23:20 11.4 84 8.62 8.8 39 48 1020.5 1 19.7 26.9 41.4 108.7 102.4 352.1
07/05 23:10 11.5 83 8.57 8.7 39 48 1020.6 1 19.6 26.8 41.2 108.0 101.6 349.2
07/05 23:00 11.5 83 8.57 8.7 37 56 1021.1 1 19.6 26.8 41.2 108.1 101.6 349.4
07/05 22:50 11.5 83 8.57 8.7 33 52 1021.2 1 19.6 26.8 41.2 108.1 101.6 349.4
07/05 22:40 11.4 83 8.52 8.6 37 43 1021.4 1 19.5 26.8 41.1 107.7 101.1 347.5
07/05 22:30 11.4 82 8.42 8.4 37 54 1021.4 1 19.3 26.6 40.7 106.6 99.7 342.7
07/05 22:20 11.2 82 8.31 8.2 33 39 1021.5 1 19.1 26.5 40.3 105.6 98.5 338.4
07/05 22:10 11.2 83 8.41 8.4 32 35 1021.6 1 19.3 26.7 40.7 106.8 99.9 343.2
07/05 22:00 11.2 82 8.31 8.2 33 46 1021.6 1 19.1 26.5 40.3 105.7 98.5 338.4
07/05 21:50 10.9 83 8.26 8.1 28 32 1021.6 1 19.0 26.5 40.3 105.5 98.2 337.3
07/05 21:40 10.8 83 8.21 8 32 33 1021.7 1 18.9 26.5 40.1 105.1 97.7 335.4
07/05 21:30 10.8 83 8.21 8 35 48 1021.7 1 18.9 26.5 40.1 105.1 97.7 335.4
07/05 21:20 10.8 82 8.11 7.9 43 50 1021.7 1 18.7 26.3 39.7 104.0 96.3 330.6
07/05 21:10 10.6 82 8.01 7.7 28 33 1021.8 1 18.5 26.2 39.4 103.2 95.2 326.7
07/05 21:00 10.5 83 8.05 7.7 32 43 1021.7 1 18.6 26.3 39.6 103.7 95.8 329.0
07/05 20:50 10.6 81 7.91 7.5 41 44 1021.7 1 18.3 26.0 39.0 102.1 93.8 321.9
07/05 20:40 10.7 81 7.96 7.6 39 44 1021.8 1 18.4 26.1 39.1 102.5 94.4 323.9
07/05 20:30 10.8 81 8.01 7.7 32 44 1022.1 1 18.5 26.1 39.3 102.9 95.0 326.0
07/05 20:20 10.7 82 8.06 7.8 24 30 1022.1 1 18.6 26.3 39.5 103.6 95.8 328.8
07/05 20:10 10.6 83 8.1 7.8 32 37 1022.1 1 18.7 26.3 39.8 104.2 96.4 331.1
07/05 20:00 10.5 83 8.05 7.7 32 43 1022.4 1 18.6 26.3 39.6 103.8 95.9 329.2

Last Refresh: 08-May-2026 12:08:18

Bureau of Meteorology